createdAt,value
2019-01-19T00:02:23.927Z,100604.78
2019-01-19T00:07:49.999Z,100600.17
2019-01-19T00:13:24.694Z,100598.89
2019-01-19T00:18:59.998Z,100600.55
2019-01-19T00:24:28.655Z,100589.79
2019-01-19T00:30:09.058Z,100583.13
2019-01-19T00:35:59.524Z,100594.09
2019-01-19T00:41:28.003Z,100596.31
2019-01-19T00:46:57.403Z,100596.31
2019-01-19T00:52:26.556Z,100600.72
2019-01-19T00:57:59.692Z,100595.27
2019-01-19T01:03:14.742Z,100583.45
2019-01-19T01:08:49.676Z,100593.04
2019-01-19T01:14:53.174Z,100598.24
2019-01-19T01:20:43.248Z,100603.73
2019-01-19T01:26:26.703Z,100598.73
2019-01-19T01:31:46.822Z,100584.80
2019-01-19T01:37:22.543Z,100597.86
2019-01-19T01:43:09.053Z,100598.42
2019-01-19T01:48:29.814Z,100597.56
2019-01-19T01:53:57.127Z,100592.77
2019-01-19T01:59:26.219Z,100585.06
2019-01-19T02:05:07.758Z,100584.69
2019-01-19T02:11:02.513Z,100584.69
2019-01-19T02:16:22.301Z,100594.11
2019-01-19T02:21:55.611Z,100582.00
2019-01-19T02:27:45.941Z,100582.97
2019-01-19T02:33:26.765Z,100575.28
2019-01-19T02:39:24.605Z,100581.32
2019-01-19T02:45:11.786Z,100565.47
2019-01-19T02:50:59.177Z,100565.47
2019-01-19T02:56:15.240Z,100576.91
2019-01-19T03:02:00.677Z,100546.92
2019-01-19T03:07:39.873Z,100567.57
2019-01-19T03:13:15.911Z,100566.61
2019-01-19T03:18:45.386Z,100566.61
2019-01-19T03:24:24.232Z,100566.98
2019-01-19T03:30:21.408Z,100557.36
2019-01-19T03:36:15.819Z,100558.95
2019-01-19T03:41:45.085Z,100566.30
2019-01-19T03:47:14.123Z,100558.87
2019-01-19T03:52:56.563Z,100558.57
2019-01-19T03:58:18.542Z,100560.08
2019-01-19T04:03:53.704Z,100557.88
2019-01-19T04:09:35.699Z,100553.64
2019-01-19T04:15:05.774Z,100539.05
2019-01-19T04:20:52.978Z,100556.63
2019-01-19T04:26:21.188Z,100551.42
2019-01-19T04:31:25.492Z,100549.87
2019-01-19T04:36:30.274Z,100539.75
2019-01-19T04:41:34.516Z,100536.30
2019-01-19T04:46:38.716Z,100551.58
2019-01-19T04:51:43.060Z,100551.58
2019-01-19T04:56:47.363Z,100539.26
2019-01-19T05:01:51.635Z,100554.09
2019-01-19T05:06:55.927Z,100534.47
2019-01-19T05:12:00.098Z,100547.25
2019-01-19T05:17:04.391Z,100547.64
2019-01-19T05:22:08.600Z,100549.14
2019-01-19T05:27:12.748Z,100547.91
2019-01-19T05:32:16.926Z,100537.30
2019-01-19T05:37:21.199Z,100551.62
2019-01-19T05:42:25.533Z,100549.03
2019-01-19T05:47:29.716Z,100544.72
2019-01-19T05:52:33.920Z,100544.72
2019-01-19T05:57:38.071Z,100548.91
2019-01-19T06:02:42.102Z,100550.36
2019-01-19T06:07:46.165Z,100551.38
2019-01-19T06:12:50.272Z,100560.78
2019-01-19T06:17:54.363Z,100557.33
2019-01-19T06:22:58.493Z,100546.66
2019-01-19T06:28:02.654Z,100542.22
2019-01-19T06:33:06.857Z,100552.70
2019-01-19T06:38:10.994Z,100555.39
2019-01-19T06:43:15.160Z,100555.39
2019-01-19T06:48:20.356Z,100562.20
2019-01-19T06:53:24.469Z,100559.20
2019-01-19T06:58:28.773Z,100562.84
2019-01-19T07:03:32.813Z,100560.73
2019-01-19T07:08:36.943Z,100569.44
2019-01-19T07:13:41.234Z,100571.74
2019-01-19T07:18:45.389Z,100572.31
2019-01-19T07:23:49.451Z,100576.13
2019-01-19T07:28:53.628Z,100576.13
2019-01-19T07:33:57.890Z,100580.73
2019-01-19T07:39:01.968Z,100582.45
2019-01-19T07:44:06.202Z,100583.89
2019-01-19T07:49:10.466Z,100583.89
2019-01-19T07:54:14.629Z,100587.13
2019-01-19T07:59:19.802Z,100574.74
2019-01-19T08:04:24.268Z,100593.16
2019-01-19T08:09:28.500Z,100589.52
2019-01-19T08:14:32.561Z,100589.52
2019-01-19T08:19:36.963Z,100602.70
2019-01-19T08:24:41.085Z,100602.70
2019-01-19T08:29:45.349Z,100579.48
2019-01-19T08:34:49.552Z,100585.62
2019-01-19T08:39:54.067Z,100585.62
2019-01-19T08:44:58.456Z,100582.05
2019-01-19T08:50:02.925Z,100576.36
2019-01-19T08:55:07.581Z,100576.15
2019-01-19T09:00:14.888Z,100580.22
2019-01-19T09:05:19.201Z,100576.47
2019-01-19T09:10:23.528Z,100576.94
2019-01-19T09:15:27.635Z,100560.88
2019-01-19T09:20:31.832Z,100560.88
2019-01-19T09:25:36.482Z,100574.53
2019-01-19T09:30:40.670Z,100585.84
2019-01-19T09:35:44.827Z,100576.61
2019-01-19T09:40:49.023Z,100571.33
2019-01-19T09:45:53.534Z,100567.47
2019-01-19T09:50:57.875Z,100572.27
2019-01-19T09:56:02.003Z,100572.27
2019-01-19T10:01:06.208Z,100559.80
2019-01-19T10:06:10.409Z,100574.96
2019-01-19T10:11:14.997Z,100574.96
2019-01-19T10:16:19.203Z,100558.34
2019-01-19T10:21:23.678Z,100557.78
2019-01-19T10:26:27.793Z,100547.85
2019-01-19T10:31:31.829Z,100547.85
2019-01-19T10:36:35.959Z,100547.98
2019-01-19T10:41:41.102Z,100539.22
2019-01-19T10:46:45.686Z,100533.92
2019-01-19T10:51:49.887Z,100513.00
2019-01-19T10:56:54.219Z,100527.30
2019-01-19T11:01:58.345Z,100495.77
2019-01-19T11:07:02.384Z,100495.77
2019-01-19T11:12:06.620Z,100501.22
2019-01-19T11:17:10.891Z,100501.22
2019-01-19T11:22:15.082Z,100473.80
2019-01-19T11:27:19.461Z,100464.17
2019-01-19T11:32:23.853Z,100470.78
2019-01-19T11:37:28.108Z,100472.82
2019-01-19T11:42:32.426Z,100448.16
2019-01-19T11:47:36.795Z,100462.45
2019-01-19T11:52:41.026Z,100444.70
2019-01-19T11:57:45.680Z,100463.23
2019-01-19T12:02:50.125Z,100463.23
2019-01-19T12:07:54.534Z,100446.61
2019-01-19T12:12:59.054Z,100429.87
2019-01-19T12:18:16.147Z,100429.87
2019-01-19T12:23:21.264Z,100445.34
2019-01-19T12:28:25.590Z,100438.29
2019-01-19T12:33:30.058Z,100431.83
2019-01-19T12:44:38.630Z,100413.96
2019-01-19T12:49:43.220Z,100418.18
2019-01-19T12:54:47.588Z,100409.54
2019-01-19T12:59:52.366Z,100401.47
2019-01-19T13:04:56.501Z,100399.64
2019-01-19T13:10:11.223Z,100401.66
2019-01-19T13:16:00.823Z,100386.49
2019-01-19T13:21:45.703Z,100384.39
2019-01-19T13:27:27.695Z,100379.64
2019-01-19T13:33:13.230Z,100378.72
2019-01-19T13:39:00.566Z,100375.63
2019-01-19T13:44:26.803Z,100367.13
2019-01-19T13:50:26.456Z,100362.05
2019-01-19T13:55:58.658Z,100351.41
2019-01-19T14:01:39.137Z,100357.64
2019-01-19T14:07:21.945Z,100353.19
2019-01-19T14:12:57.739Z,100347.14
2019-01-19T14:18:35.304Z,100339.59
2019-01-19T14:23:50.605Z,100345.20
2019-01-19T14:29:35.008Z,100345.20
2019-01-19T14:35:21.597Z,100338.27
2019-01-19T14:41:07.055Z,100333.06
2019-01-19T14:47:01.057Z,100328.04
2019-01-19T14:52:47.220Z,100322.05
2019-01-19T14:58:13.884Z,100322.05
2019-01-19T15:03:38.838Z,100319.59
2019-01-19T15:09:19.026Z,100319.59
2019-01-19T15:14:50.435Z,100311.27
2019-01-19T15:20:29.809Z,100311.45
2019-01-19T15:26:42.746Z,100302.17
2019-01-19T15:32:01.557Z,100302.84
2019-01-19T15:37:39.624Z,100306.05
2019-01-19T15:43:29.255Z,100299.03
2019-01-19T15:49:11.195Z,100296.26
2019-01-19T15:54:51.076Z,100295.08
2019-01-19T16:00:32.162Z,100297.28
2019-01-19T16:06:19.364Z,100297.06
2019-01-19T16:12:01.540Z,100289.70
2019-01-19T16:17:46.965Z,100290.79
2019-01-19T16:23:31.419Z,100291.98
2019-01-19T16:29:31.978Z,100284.88
2019-01-19T16:34:54.141Z,100284.88
2019-01-19T16:40:47.170Z,100284.34
